Time;durP1;ratioP1;P1;durP2;ratioP2;P2;SDS_P1;SDS_P2;PMS_P1;PMS_P2;Temp;Humidity;BMP_temperature;BMP_pressure;BME280_temperature;BME280_humidity;BME280_pressure;Samples;Min_cycle;Max_cycle;Signal;HPM_P1;HPM_P2
2022/06/20 00:01:27;;;;;;;7.95;5.93;;;;;;;;;;5029765;28;20471;-55
2022/06/20 00:03:54;;;;;;;8.32;5.45;;;;;;;;;;5029801;28;20117;-57
2022/06/20 00:06:21;;;;;;;9.73;6.07;;;;;;;;;;5032802;28;20041;-58
2022/06/20 00:08:49;;;;;;;;;;;;;;;;;;5023307;28;20041;-59
2022/06/20 00:11:17;;;;;;;10.10;5.20;;;;;;;;;;5013615;28;20377;-59
2022/06/20 00:13:47;;;;;;;7.78;5.55;;;;;;;;;;5032618;28;20056;-58
2022/06/20 00:16:15;;;;;;;8.20;4.90;;;;;;;;;;5032617;28;20033;-58
2022/06/20 00:18:41;;;;;;;8.18;5.32;;;;;;;;;;5020646;28;20104;-58
2022/06/20 00:21:11;;;;;;;7.90;5.95;;;;;;;;;;5013315;28;20028;-57
2022/06/20 00:23:37;;;;;;;9.50;5.55;;;;;;;;;;5029732;28;20030;-59
2022/06/20 00:26:03;;;;;;;7.43;5.22;;;;;;;;;;5032751;28;20121;-54
2022/06/20 00:28:29;;;;;;;6.78;6.07;;;;;;;;;;5023738;28;20025;-58
2022/06/20 00:30:55;;;;;;;6.40;5.60;;;;;;;;;;5022953;28;20030;-60
2022/06/20 00:33:21;;;;;;;7.55;6.40;;;;;;;;;;5020927;28;20391;-58
2022/06/20 00:35:47;;;;;;;7.28;5.57;;;;;;;;;;5030323;28;20025;-57
2022/06/20 00:38:21;;;;;;;18.27;6.07;;;;;;;;;;5032445;28;20029;-58
2022/06/20 00:40:48;;;;;;;9.27;5.07;;;;;;;;;;5032166;28;20018;-57
2022/06/20 00:43:26;;;;;;;6.30;5.07;;;;;;;;;;5017515;28;20038;-59
2022/06/20 00:45:54;;;;;;;8.40;5.60;;;;;;;;;;5014849;28;20110;-58
2022/06/20 00:48:24;;;;;;;11.25;5.43;;;;;;;;;;5015086;28;20052;-58
2022/06/20 00:50:53;;;;;;;7.25;5.15;;;;;;;;;;5032646;28;20087;-57
2022/06/20 00:53:22;;;;;;;9.40;6.10;;;;;;;;;;5017008;28;20044;-59
2022/06/20 00:55:54;;;;;;;7.00;5.15;;;;;;;;;;5012535;28;20437;-59
2022/06/20 00:58:23;;;;;;;9.60;5.60;;;;;;;;;;5012603;28;20062;-58
2022/06/20 01:00:50;;;;;;;6.55;5.75;;;;;;;;;;5028102;28;20099;-59
2022/06/20 01:03:18;;;;;;;7.68;5.93;;;;;;;;;;5018758;28;20030;-59
2022/06/20 01:05:53;;;;;;;8.90;6.18;;;;;;;;;;5023480;28;20018;-59
2022/06/20 01:08:21;;;;;;;7.13;5.57;;;;;;;;;;5012239;28;20068;-59
2022/06/20 01:10:50;;;;;;;6.03;5.43;;;;;;;;;;5012323;28;20487;-57
2022/06/20 01:13:18;;;;;;;5.45;4.95;;;;;;;;;;5011233;28;20030;-59
2022/06/20 01:15:45;;;;;;;8.80;5.80;;;;;;;;;;5012160;28;20033;-59
2022/06/20 01:18:26;;;;;;;6.78;5.40;;;;;;;;;;5013652;28;20096;-57
2022/06/20 01:20:53;;;;;;;7.07;5.65;;;;;;;;;;5031655;28;20059;-59
2022/06/20 01:23:19;;;;;;;8.55;6.78;;;;;;;;;;5017710;28;20030;-59
2022/06/20 01:25:45;;;;;;;11.55;6.07;;;;;;;;;;5012142;28;20069;-56
2022/06/20 01:28:13;;;;;;;8.90;5.95;;;;;;;;;;5012526;28;20030;-58
2022/06/20 01:30:41;;;;;;;7.85;6.05;;;;;;;;;;5016538;28;20129;-57
2022/06/20 01:33:07;;;;;;;8.70;5.60;;;;;;;;;;5018283;28;20486;-57
2022/06/20 01:38:21;;;;;;;8.35;5.40;;;;;;;;;;5011978;28;20045;-59
2022/06/20 01:43:33;;;;;;;7.15;6.38;;;;;;;;;;5025039;28;20048;-57
2022/06/20 01:46:00;;;;;;;7.30;6.30;;;;;;;;;;5010615;28;20037;-57
2022/06/20 01:48:28;;;;;;;10.23;5.82;;;;;;;;;;5015161;28;20032;-58
2022/06/20 01:50:54;;;;;;;8.38;5.72;;;;;;;;;;5031679;28;20371;-57
2022/06/20 01:53:22;;;;;;;10.48;6.80;;;;;;;;;;5018295;28;20040;-55
2022/06/20 01:55:49;;;;;;;11.45;7.75;;;;;;;;;;5012595;28;20029;-57
2022/06/20 01:58:19;;;;;;;10.00;7.20;;;;;;;;;;5031092;28;20033;-57
2022/06/20 02:00:45;;;;;;;9.45;6.97;;;;;;;;;;5029900;28;20036;-59
2022/06/20 02:03:13;;;;;;;8.32;7.53;;;;;;;;;;5022525;28;20099;-59
2022/06/20 02:05:39;;;;;;;11.05;7.68;;;;;;;;;;5029857;28;20025;-59
2022/06/20 02:08:06;;;;;;;8.77;7.38;;;;;;;;;;5020881;28;20129;-58
2022/06/20 02:10:36;;;;;;;9.40;7.30;;;;;;;;;;5017521;28;20037;-56
2022/06/20 02:13:02;;;;;;;9.77;7.35;;;;;;;;;;5024579;28;20041;-58
2022/06/20 02:15:31;;;;;;;9.82;7.47;;;;;;;;;;5051131;22;20053;-66
2022/06/20 02:17:57;;;;;;;8.95;7.43;;;;;;;;;;5033197;28;20064;-66
2022/06/20 02:20:29;;;;;;;11.10;8.18;;;;;;;;;;5034802;28;20033;-66
2022/06/20 02:22:57;;;;;;;10.52;7.50;;;;;;;;;;5035166;28;20124;-66
2022/06/20 02:25:25;;;;;;;13.93;8.02;;;;;;;;;;5027696;28;20022;-66
2022/06/20 02:27:53;;;;;;;15.18;8.43;;;;;;;;;;5015089;28;20558;-66
2022/06/20 02:30:19;;;;;;;9.07;7.55;;;;;;;;;;5015234;28;20026;-66
2022/06/20 02:32:47;;;;;;;18.90;7.70;;;;;;;;;;5010065;28;20034;-66
2022/06/20 02:35:15;;;;;;;9.45;7.55;;;;;;;;;;5014779;28;20060;-66
2022/06/20 02:37:42;;;;;;;17.48;8.30;;;;;;;;;;5013603;28;20073;-67
2022/06/20 02:40:10;;;;;;;8.45;7.50;;;;;;;;;;5014944;28;20057;-66
2022/06/20 02:42:40;;;;;;;8.52;7.60;;;;;;;;;;5014501;28;20025;-66
2022/06/20 02:45:08;;;;;;;13.48;8.95;;;;;;;;;;5014941;28;20033;-66
2022/06/20 02:47:35;;;;;;;11.15;8.13;;;;;;;;;;5015135;28;20482;-66
2022/06/20 02:50:02;;;;;;;9.50;8.52;;;;;;;;;;5014664;28;20030;-66
2022/06/20 02:52:34;;;;;;;33.90;12.82;;;;;;;;;;5011964;28;20072;-66
2022/06/20 02:55:00;;;;;;;12.30;9.45;;;;;;;;;;5013148;28;20033;-66
2022/06/20 02:57:35;;;;;;;14.38;10.05;;;;;;;;;;5014798;28;20030;-66
2022/06/20 03:00:02;;;;;;;10.98;9.98;;;;;;;;;;5014686;28;20033;-66
2022/06/20 03:02:30;;;;;;;13.43;10.48;;;;;;;;;;4998810;28;20035;-66
2022/06/20 03:04:57;;;;;;;16.02;10.90;;;;;;;;;;5012825;28;20101;-66
2022/06/20 03:07:24;;;;;;;11.25;10.05;;;;;;;;;;5014313;28;20439;-66
2022/06/20 03:09:53;;;;;;;14.30;10.70;;;;;;;;;;4997315;28;20030;-66
2022/06/20 03:12:19;;;;;;;12.40;10.45;;;;;;;;;;5011808;28;20030;-66
2022/06/20 03:14:51;;;;;;;12.90;10.90;;;;;;;;;;5010133;28;20030;-66
2022/06/20 03:17:18;;;;;;;19.13;12.07;;;;;;;;;;5009526;28;20050;-66
2022/06/20 03:19:47;;;;;;;15.82;12.00;;;;;;;;;;5005766;28;20096;-66
2022/06/20 03:22:15;;;;;;;12.23;10.10;;;;;;;;;;5013532;28;20026;-67
2022/06/20 03:24:42;;;;;;;11.90;10.43;;;;;;;;;;4993882;28;20026;-66
2022/06/20 03:27:11;;;;;;;13.77;10.15;;;;;;;;;;5002351;28;20092;-66
2022/06/20 03:29:38;;;;;;;17.23;9.80;;;;;;;;;;5012154;28;20030;-66
2022/06/20 03:32:05;;;;;;;11.77;10.15;;;;;;;;;;5012411;28;20061;-66
2022/06/20 03:34:31;;;;;;;;;;;;;;;;;;5012097;28;20022;-66
2022/06/20 03:36:57;;;;;;;11.93;9.32;;;;;;;;;;5014187;28;19912;-66
2022/06/20 03:39:24;;;;;;;13.55;10.05;;;;;;;;;;5006786;28;20031;-66
2022/06/20 03:41:50;;;;;;;12.23;10.68;;;;;;;;;;5005499;28;20101;-66
2022/06/20 03:44:19;;;;;;;13.13;10.68;;;;;;;;;;5013231;28;20476;-65
2022/06/20 03:47:07;;;;;;;12.63;11.32;;;;;;;;;;5012698;28;20068;-66
2022/06/20 03:49:54;;;;;;;18.80;12.25;;;;;;;;;;5013847;28;20057;-66
2022/06/20 03:52:22;;;;;;;12.35;10.93;;;;;;;;;;5013923;28;20041;-66
2022/06/20 03:55:06;;;;;;;15.30;11.57;;;;;;;;;;5012045;28;20390;-66
2022/06/20 03:58:11;;;;;;;14.88;12.20;;;;;;;;;;5007896;28;20036;-66
2022/06/20 04:00:47;;;;;;;13.52;12.00;;;;;;;;;;4986798;28;20046;-65
2022/06/20 04:03:31;;;;;;;17.42;12.38;;;;;;;;;;4975409;28;20384;-66
2022/06/20 04:06:00;;;;;;;13.30;11.68;;;;;;;;;;5006262;28;20121;-65
2022/06/20 04:11:27;;;;;;;14.32;11.35;;;;;;;;;;5013584;28;20548;-65
2022/06/20 04:14:12;;;;;;;17.33;12.52;;;;;;;;;;5013507;28;20029;-65
2022/06/20 04:16:38;;;;;;;13.75;12.25;;;;;;;;;;5013332;28;20064;-66
2022/06/20 04:19:10;;;;;;;14.20;12.50;;;;;;;;;;5013287;28;20030;-66
2022/06/20 04:21:39;;;;;;;15.35;13.48;;;;;;;;;;5013222;28;20022;-67
2022/06/20 04:24:12;;;;;;;15.50;13.90;;;;;;;;;;5013432;28;20030;-67
2022/06/20 04:26:43;;;;;;;14.75;13.25;;;;;;;;;;5013303;28;20018;-66
2022/06/20 04:29:21;;;;;;;14.75;13.30;;;;;;;;;;5012175;28;20054;-67
2022/06/20 04:32:09;;;;;;;15.02;13.52;;;;;;;;;;5011475;28;20083;-66
2022/06/20 04:35:01;;;;;;;14.73;12.73;;;;;;;;;;5011100;28;20037;-66
2022/06/20 04:37:35;;;;;;;15.50;13.60;;;;;;;;;;5010048;28;20046;-65
2022/06/20 04:40:01;;;;;;;23.17;13.13;;;;;;;;;;5012551;28;20053;-66
2022/06/20 04:42:43;;;;;;;16.20;12.60;;;;;;;;;;5012684;28;20618;-67
2022/06/20 04:45:12;;;;;;;14.90;12.82;;;;;;;;;;5012788;28;20049;-68
2022/06/20 04:47:41;;;;;;;15.52;13.00;;;;;;;;;;5011549;28;20068;-67
2022/06/20 04:50:10;;;;;;;19.80;13.32;;;;;;;;;;5012917;28;20574;-67
2022/06/20 04:52:36;;;;;;;15.35;13.75;;;;;;;;;;5011601;28;20029;-65
2022/06/20 04:55:04;;;;;;;15.10;13.55;;;;;;;;;;5012676;28;20475;-67
2022/06/20 04:57:31;;;;;;;16.25;14.52;;;;;;;;;;5011313;28;20026;-67
2022/06/20 04:59:59;;;;;;;15.15;13.57;;;;;;;;;;5011396;28;20487;-66
2022/06/20 05:02:26;;;;;;;17.27;14.13;;;;;;;;;;5012628;28;20026;-67
2022/06/20 05:04:53;;;;;;;15.70;14.20;;;;;;;;;;5012551;28;20026;-66
2022/06/20 05:07:34;;;;;;;15.35;13.77;;;;;;;;;;5011119;28;20022;-66
2022/06/20 05:10:03;;;;;;;15.57;14.02;;;;;;;;;;5002768;28;20261;-65
2022/06/20 05:12:34;;;;;;;19.67;14.65;;;;;;;;;;5008581;28;20037;-66
2022/06/20 05:15:10;;;;;;;20.98;14.60;;;;;;;;;;5010971;28;20030;-65
2022/06/20 05:17:37;;;;;;;25.27;15.88;;;;;;;;;;5012091;28;20080;-70
2022/06/20 05:20:17;;;;;;;22.55;16.45;;;;;;;;;;5012488;28;20022;-63
2022/06/20 05:22:46;;;;;;;21.77;16.13;;;;;;;;;;5012205;28;20036;-64
2022/06/20 05:25:16;;;;;;;18.27;15.63;;;;;;;;;;5012323;28;20030;-64
2022/06/20 05:27:55;;;;;;;19.13;15.05;;;;;;;;;;5012417;28;20529;-64
2022/06/20 05:30:22;;;;;;;20.27;15.63;;;;;;;;;;5012248;28;20537;-64
2022/06/20 05:32:52;;;;;;;18.38;15.85;;;;;;;;;;5012099;28;20419;-64
2022/06/20 05:35:22;;;;;;;17.48;15.77;;;;;;;;;;5012187;28;20022;-64
2022/06/20 05:37:48;;;;;;;20.10;15.77;;;;;;;;;;5010642;28;20029;-64
2022/06/20 05:40:41;;;;;;;22.37;16.27;;;;;;;;;;5012466;28;20025;-64
2022/06/20 05:43:20;;;;;;;17.38;15.60;;;;;;;;;;5010223;28;20820;-64
2022/06/20 05:45:50;;;;;;;18.35;15.98;;;;;;;;;;5010517;28;20026;-64
2022/06/20 05:48:17;;;;;;;16.90;15.10;;;;;;;;;;5011814;28;20159;-64
2022/06/20 05:50:46;;;;;;;17.75;15.18;;;;;;;;;;5010858;28;20065;-64
2022/06/20 05:53:14;;;;;;;18.77;14.32;;;;;;;;;;5011949;28;20026;-64
2022/06/20 05:55:45;;;;;;;15.77;14.02;;;;;;;;;;5011797;28;20080;-64
2022/06/20 05:58:15;;;;;;;17.13;15.23;;;;;;;;;;5011784;28;20041;-64
2022/06/20 06:00:42;;;;;;;16.67;14.98;;;;;;;;;;5011822;28;20030;-64
2022/06/20 06:03:26;;;;;;;18.67;15.52;;;;;;;;;;5011914;28;20045;-64
2022/06/20 06:05:57;;;;;;;15.93;14.07;;;;;;;;;;5011839;28;20049;-64
2022/06/20 06:08:42;;;;;;;16.60;14.98;;;;;;;;;;5011671;28;20044;-64
2022/06/20 06:11:14;;;;;;;17.50;14.70;;;;;;;;;;5011791;28;20030;-64
2022/06/20 06:13:58;;;;;;;16.88;14.57;;;;;;;;;;5011800;28;20505;-64
2022/06/20 06:16:48;;;;;;;16.40;13.48;;;;;;;;;;5011217;28;20057;-64
2022/06/20 06:19:14;;;;;;;22.20;14.32;;;;;;;;;;5011124;28;20026;-64
2022/06/20 06:21:41;;;;;;;22.90;13.80;;;;;;;;;;5033504;28;20022;-64
2022/06/20 06:24:10;;;;;;;18.17;14.23;;;;;;;;;;5001529;28;20297;-55
2022/06/20 06:26:37;;;;;;;20.27;14.93;;;;;;;;;;4998940;28;20102;-54
2022/06/20 06:29:04;;;;;;;16.35;14.75;;;;;;;;;;5006503;28;20025;-53
2022/06/20 06:31:34;;;;;;;18.35;14.00;;;;;;;;;;5005192;28;20033;-52
2022/06/20 06:34:15;;;;;;;21.30;14.13;;;;;;;;;;4991964;28;20479;-51
2022/06/20 06:36:43;;;;;;;19.92;13.10;;;;;;;;;;4992153;28;20027;-50
2022/06/20 06:39:48;;;;;;;15.90;12.70;;;;;;;;;;4992221;28;20062;-51
2022/06/20 06:42:15;;;;;;;17.30;13.43;;;;;;;;;;5009239;28;20061;-53
2022/06/20 06:44:43;;;;;;;22.77;12.98;;;;;;;;;;5009170;28;20080;-50
2022/06/20 06:47:30;;;;;;;19.33;13.27;;;;;;;;;;5010257;28;20026;-52
2022/06/20 06:49:58;;;;;;;18.33;13.07;;;;;;;;;;5011736;28;20036;-53
2022/06/20 06:52:30;;;;;;;17.35;13.43;;;;;;;;;;5011560;28;20037;-54
2022/06/20 06:55:03;;;;;;;17.92;14.30;;;;;;;;;;5011374;28;20037;-55
2022/06/20 06:57:38;;;;;;;16.05;14.45;;;;;;;;;;5011435;28;20029;-57
2022/06/20 07:00:04;;;;;;;16.00;13.95;;;;;;;;;;5014686;28;20175;-56
2022/06/20 07:02:37;;;;;;;16.95;14.40;;;;;;;;;;5014942;28;20053;-53
2022/06/20 07:05:09;;;;;;;17.63;12.70;;;;;;;;;;5014926;28;20030;-53
2022/06/20 07:07:42;;;;;;;15.13;13.68;;;;;;;;;;5014687;28;20076;-54
2022/06/20 07:10:17;;;;;;;15.35;13.82;;;;;;;;;;5015019;28;20030;-54
2022/06/20 07:12:48;;;;;;;14.05;12.60;;;;;;;;;;5014842;28;20038;-52
2022/06/20 07:15:14;;;;;;;16.13;12.98;;;;;;;;;;5014618;28;20502;-53
2022/06/20 07:17:46;;;;;;;19.92;13.52;;;;;;;;;;5014541;28;20026;-55
2022/06/20 07:20:13;;;;;;;14.98;12.15;;;;;;;;;;5014790;28;20061;-52
2022/06/20 07:22:41;;;;;;;11.40;10.20;;;;;;;;;;5014605;28;20029;-52
2022/06/20 07:25:07;;;;;;;11.52;10.15;;;;;;;;;;5014472;28;20371;-54
2022/06/20 07:27:36;;;;;;;16.73;14.40;;;;;;;;;;5013167;28;20029;-65
2022/06/20 07:30:05;;;;;;;17.45;13.45;;;;;;;;;;5014523;28;20060;-64
2022/06/20 07:32:31;;;;;;;17.95;13.77;;;;;;;;;;5014327;28;20033;-64
2022/06/20 07:34:59;;;;;;;16.13;11.43;;;;;;;;;;5014435;28;20033;-64
2022/06/20 07:37:28;;;;;;;14.88;13.43;;;;;;;;;;5014217;28;20061;-65
2022/06/20 07:40:18;;;;;;;15.15;13.55;;;;;;;;;;5014194;28;20117;-64
2022/06/20 07:42:47;;;;;;;13.35;12.02;;;;;;;;;;5014222;28;20022;-64
2022/06/20 07:45:16;;;;;;;15.95;12.35;;;;;;;;;;5014372;28;20383;-64
2022/06/20 07:47:47;;;;;;;16.08;11.98;;;;;;;;;;5014109;28;20466;-64
2022/06/20 07:50:15;;;;;;;19.92;11.90;;;;;;;;;;5013527;28;20064;-64
2022/06/20 07:52:47;;;;;;;12.85;11.55;;;;;;;;;;5013981;28;20065;-64
2022/06/20 07:55:17;;;;;;;13.93;10.57;;;;;;;;;;5013978;28;20505;-64
2022/06/20 07:57:59;;;;;;;12.60;9.70;;;;;;;;;;5013846;28;20029;-64
2022/06/20 08:00:33;;;;;;;14.85;9.38;;;;;;;;;;5013961;28;20030;-64
2022/06/20 08:03:04;;;;;;;11.75;9.88;;;;;;;;;;5013887;28;20508;-64
2022/06/20 08:05:34;;;;;;;12.82;9.38;;;;;;;;;;5013805;28;20029;-64
2022/06/20 08:08:03;;;;;;;12.30;10.93;;;;;;;;;;5012638;28;20386;-64
2022/06/20 08:10:35;;;;;;;16.33;11.20;;;;;;;;;;5013404;28;20414;-64
2022/06/20 08:13:13;;;;;;;13.00;9.00;;;;;;;;;;5013694;28;20026;-64
2022/06/20 08:15:46;;;;;;;10.48;7.82;;;;;;;;;;5053977;22;20042;-61
2022/06/20 08:18:14;;;;;;;10.43;9.32;;;;;;;;;;5011647;28;20108;-61
2022/06/20 08:20:42;;;;;;;16.75;9.50;;;;;;;;;;5013562;28;20108;-62
2022/06/20 08:23:14;;;;;;;11.93;10.18;;;;;;;;;;5012230;28;20029;-61
2022/06/20 08:25:42;;;;;;;9.90;8.90;;;;;;;;;;5013406;28;20024;-60
2022/06/20 08:28:10;;;;;;;9.43;8.02;;;;;;;;;;5013311;28;20026;-57
2022/06/20 08:30:53;;;;;;;7.50;6.90;;;;;;;;;;5013315;28;20038;-57
2022/06/20 08:33:22;;;;;;;15.45;6.63;;;;;;;;;;5013176;28;20036;-62
2022/06/20 08:35:51;;;;;;;10.02;7.65;;;;;;;;;;5019813;28;20026;-61
2022/06/20 08:38:36;;;;;;;12.25;6.90;;;;;;;;;;5013041;28;20034;-60
2022/06/20 08:41:21;;;;;;;9.13;6.47;;;;;;;;;;5012666;28;20037;-61
2022/06/20 08:43:47;;;;;;;7.75;5.95;;;;;;;;;;5013235;28;20517;-60
2022/06/20 08:46:18;;;;;;;8.85;6.00;;;;;;;;;;5013171;28;20026;-63
2022/06/20 08:48:57;;;;;;;5.75;4.65;;;;;;;;;;5012823;28;20425;-60
2022/06/20 08:51:32;;;;;;;5.85;3.15;;;;;;;;;;5012940;28;20152;-60
2022/06/20 08:54:10;;;;;;;3.97;3.15;;;;;;;;;;5011540;28;20022;-60
2022/06/20 08:56:36;;;;;;;5.63;4.43;;;;;;;;;;5012810;28;20038;-61
2022/06/20 08:59:08;;;;;;;8.57;4.32;;;;;;;;;;5012620;28;20026;-56
2022/06/20 09:01:50;;;;;;;7.10;4.80;;;;;;;;;;5012648;28;20026;-63
2022/06/20 09:04:28;;;;;;;7.00;4.22;;;;;;;;;;5012573;28;20490;-60
2022/06/20 09:07:23;;;;;;;8.98;3.75;;;;;;;;;;5012667;28;20048;-62
2022/06/20 09:10:25;;;;;;;5.30;4.68;;;;;;;;;;5027685;28;20034;-61
2022/06/20 09:12:54;;;;;;;9.80;4.32;;;;;;;;;;4990566;28;20035;-58
2022/06/20 09:15:39;;;;;;;6.15;3.70;;;;;;;;;;5008338;28;20502;-59
2022/06/20 09:18:09;;;;;;;6.88;4.07;;;;;;;;;;5012417;28;20042;-61
2022/06/20 09:20:41;;;;;;;7.25;4.35;;;;;;;;;;5011929;28;20112;-63
2022/06/20 09:23:19;;;;;;;8.70;3.92;;;;;;;;;;5012200;28;20033;-60
2022/06/20 09:25:45;;;;;;;5.07;3.97;;;;;;;;;;5012391;28;20026;-60
2022/06/20 09:28:37;;;;;;;9.45;5.13;;;;;;;;;;5012228;28;20096;-62
2022/06/20 09:31:06;;;;;;;7.35;4.80;;;;;;;;;;5012659;28;20064;-61
2022/06/20 09:33:44;;;;;;;6.55;5.45;;;;;;;;;;5012124;28;20026;-61
2022/06/20 09:36:13;;;;;;;9.35;5.07;;;;;;;;;;5012136;28;20502;-59
2022/06/20 09:38:43;;;;;;;5.18;4.50;;;;;;;;;;5012033;28;20105;-61
2022/06/20 09:41:14;;;;;;;8.85;4.60;;;;;;;;;;5011847;28;20045;-60
2022/06/20 09:43:59;;;;;;;8.77;3.95;;;;;;;;;;5011988;28;20026;-63
2022/06/20 09:46:30;;;;;;;12.23;4.05;;;;;;;;;;5012102;28;20479;-60
2022/06/20 09:49:15;;;;;;;8.40;4.68;;;;;;;;;;5011948;28;20026;-62
2022/06/20 09:51:41;;;;;;;11.15;4.35;;;;;;;;;;5012034;28;20026;-60
2022/06/20 09:54:15;;;;;;;6.97;4.10;;;;;;;;;;5011850;28;20018;-62
2022/06/20 09:56:50;;;;;;;6.88;4.25;;;;;;;;;;5011912;28;20030;-61
2022/06/20 09:59:35;;;;;;;6.82;3.97;;;;;;;;;;5011625;28;20100;-63
2022/06/20 10:02:15;;;;;;;10.70;4.63;;;;;;;;;;5011776;28;20121;-62
2022/06/20 10:05:02;;;;;;;10.15;3.85;;;;;;;;;;5011904;28;20091;-61
2022/06/20 10:07:47;;;;;;;6.03;4.38;;;;;;;;;;5011495;28;20478;-62
2022/06/20 10:10:35;;;;;;;9.35;5.03;;;;;;;;;;5011917;28;20022;-55
2022/06/20 10:13:19;;;;;;;10.23;6.40;;;;;;;;;;5011829;28;20113;-57
2022/06/20 10:15:58;;;;;;;12.73;4.68;;;;;;;;;;5011713;28;20025;-57
2022/06/20 10:18:47;;;;;;;6.70;4.30;;;;;;;;;;5011638;28;20037;-62
2022/06/20 10:21:32;;;;;;;5.65;3.60;;;;;;;;;;5013415;28;20454;-61
2022/06/20 10:24:04;;;;;;;6.88;4.15;;;;;;;;;;5011709;28;20085;-63
2022/06/20 10:26:49;;;;;;;3.72;3.28;;;;;;;;;;5011664;28;20084;-61
2022/06/20 10:29:22;;;;;;;10.05;4.55;;;;;;;;;;5011485;28;20045;-60
2022/06/20 10:32:08;;;;;;;6.40;4.63;;;;;;;;;;5011675;28;20425;-62
2022/06/20 10:35:07;;;;;;;10.57;4.55;;;;;;;;;;5015508;28;20026;-60
2022/06/20 10:38:08;;;;;;;10.77;5.18;;;;;;;;;;5024437;28;20026;-60
2022/06/20 10:40:41;;;;;;;8.68;5.68;;;;;;;;;;5024279;28;20046;-62
2022/06/20 10:43:11;;;;;;;8.57;5.07;;;;;;;;;;5015370;28;20100;-61
2022/06/20 10:45:40;;;;;;;9.02;4.28;;;;;;;;;;5015425;28;20095;-62
2022/06/20 10:48:06;;;;;;;7.85;4.47;;;;;;;;;;5013821;28;20065;-61
2022/06/20 10:50:38;;;;;;;12.38;4.65;;;;;;;;;;5003291;28;20050;-61
2022/06/20 10:53:23;;;;;;;6.28;3.53;;;;;;;;;;5002722;28;20498;-60
2022/06/20 10:55:56;;;;;;;4.25;2.90;;;;;;;;;;5011923;28;20026;-62
2022/06/20 10:58:22;;;;;;;5.70;3.83;;;;;;;;;;5006025;28;20018;-63
2022/06/20 11:00:52;;;;;;;7.40;3.60;;;;;;;;;;5014805;28;20394;-64
2022/06/20 11:03:40;;;;;;;8.40;3.83;;;;;;;;;;5014867;28;20537;-61
2022/06/20 11:06:27;;;;;;;9.23;4.60;;;;;;;;;;5014847;28;20030;-63
2022/06/20 11:08:57;;;;;;;9.18;3.60;;;;;;;;;;5007176;28;20037;-62
2022/06/20 11:11:34;;;;;;;5.72;3.75;;;;;;;;;;5014889;28;20034;-62
2022/06/20 11:14:03;;;;;;;5.22;3.72;;;;;;;;;;5006266;28;20030;-62
2022/06/20 11:16:29;;;;;;;5.40;3.50;;;;;;;;;;5014667;28;20134;-64
2022/06/20 11:19:12;;;;;;;11.05;4.20;;;;;;;;;;5014452;28;20510;-62
2022/06/20 11:21:38;;;;;;;14.57;3.92;;;;;;;;;;5012335;28;20022;-63
2022/06/20 11:24:23;;;;;;;7.75;4.28;;;;;;;;;;4996650;28;20022;-63
2022/06/20 11:27:01;;;;;;;8.13;3.80;;;;;;;;;;4995051;28;20031;-62
2022/06/20 11:29:30;;;;;;;4.78;4.00;;;;;;;;;;5003022;28;20041;-61
2022/06/20 11:32:09;;;;;;;8.98;3.72;;;;;;;;;;5003114;28;20199;-63
2022/06/20 11:34:38;;;;;;;9.32;3.90;;;;;;;;;;5014539;28;20152;-62
2022/06/20 11:37:04;;;;;;;23.92;20.98;;;;;;;;;;5014215;28;20030;-61
2022/06/20 11:39:36;;;;;;;33.20;30.13;;;;;;;;;;5014376;28;20037;-59
2022/06/20 11:42:04;;;;;;;7.55;3.45;;;;;;;;;;5013057;28;20601;-62
2022/06/20 11:44:39;;;;;;;6.35;3.95;;;;;;;;;;5011692;28;20038;-62
2022/06/20 11:47:23;;;;;;;8.95;3.80;;;;;;;;;;5009642;28;20029;-63
2022/06/20 11:50:02;;;;;;;7.50;3.58;;;;;;;;;;5006532;28;20051;-63
2022/06/20 11:52:32;;;;;;;9.00;3.33;;;;;;;;;;4993156;28;20038;-63
2022/06/20 11:55:05;;;;;;;6.28;3.53;;;;;;;;;;5018461;28;20026;-63
2022/06/20 11:57:38;;;;;;;10.27;3.70;;;;;;;;;;5011270;28;20113;-63
2022/06/20 12:00:06;;;;;;;8.82;4.00;;;;;;;;;;5000359;28;20062;-63
2022/06/20 12:02:43;;;;;;;16.23;4.63;;;;;;;;;;5019109;28;20549;-63
2022/06/20 12:05:19;;;;;;;5.90;3.45;;;;;;;;;;5010579;28;20022;-63
2022/06/20 12:08:03;;;;;;;7.05;4.13;;;;;;;;;;5001848;28;20022;-63
2022/06/20 12:10:50;;;;;;;11.05;5.25;;;;;;;;;;5009802;28;20034;-63
2022/06/20 12:13:20;;;;;;;7.13;4.35;;;;;;;;;;5014087;28;20522;-64
2022/06/20 12:15:58;;;;;;;6.95;4.15;;;;;;;;;;5010230;28;20059;-63
2022/06/20 12:24:22;;;;;;;7.10;3.58;;;;;;;;;;5018339;28;20105;-63
2022/06/20 12:26:49;;;;;;;8.27;4.30;;;;;;;;;;5025533;28;20041;-63
2022/06/20 12:29:20;;;;;;;8.15;4.70;;;;;;;;;;5006987;28;20026;-63
2022/06/20 12:31:48;;;;;;;8.55;3.88;;;;;;;;;;4993786;28;20088;-64
2022/06/20 12:34:33;;;;;;;6.70;3.50;;;;;;;;;;5008631;28;20018;-63
2022/06/20 12:36:59;;;;;;;10.43;4.55;;;;;;;;;;5012965;28;20549;-64
2022/06/20 12:39:27;;;;;;;7.32;3.78;;;;;;;;;;5013019;28;20022;-63
2022/06/20 12:41:57;;;;;;;6.38;3.55;;;;;;;;;;5013202;28;20032;-63
2022/06/20 12:44:35;;;;;;;9.65;4.03;;;;;;;;;;5013183;28;20037;-64
2022/06/20 12:47:01;;;;;;;7.28;3.70;;;;;;;;;;5013010;28;20470;-63
2022/06/20 12:49:40;;;;;;;7.75;3.83;;;;;;;;;;5009096;28;20105;-63
2022/06/20 12:52:21;;;;;;;8.82;4.28;;;;;;;;;;5000880;28;20084;-64
2022/06/20 12:54:59;;;;;;;8.25;3.72;;;;;;;;;;5006360;28;20037;-63
2022/06/20 12:57:43;;;;;;;7.90;3.70;;;;;;;;;;5000680;28;20040;-63
2022/06/20 13:00:19;;;;;;;8.43;3.50;;;;;;;;;;5012590;28;20030;-63
2022/06/20 13:03:03;;;;;;;9.00;3.83;;;;;;;;;;5013005;28;20033;-64
2022/06/20 13:05:45;;;;;;;6.25;3.60;;;;;;;;;;4998569;28;20026;-64
2022/06/20 13:08:11;;;;;;;8.43;4.28;;;;;;;;;;5009083;28;20026;-63
2022/06/20 13:10:46;;;;;;;10.82;3.50;;;;;;;;;;5011948;28;20034;-63
2022/06/20 13:13:15;;;;;;;7.95;4.07;;;;;;;;;;4997525;28;20069;-63
2022/06/20 13:16:00;;;;;;;12.60;4.22;;;;;;;;;;5012070;28;20041;-64
2022/06/20 13:18:38;;;;;;;8.50;3.70;;;;;;;;;;5011097;28;20026;-63
2022/06/20 13:21:08;;;;;;;5.03;3.13;;;;;;;;;;5017408;28;20087;-63
2022/06/20 13:23:53;;;;;;;8.90;3.72;;;;;;;;;;5012598;28;20021;-63
2022/06/20 13:26:31;;;;;;;6.68;3.63;;;;;;;;;;5012375;28;20364;-63
2022/06/20 13:29:01;;;;;;;10.68;3.53;;;;;;;;;;5011503;28;20025;-64
2022/06/20 13:31:33;;;;;;;7.47;4.22;;;;;;;;;;4999470;28;20042;-64
2022/06/20 13:34:02;;;;;;;5.45;3.58;;;;;;;;;;5009349;28;20064;-63
2022/06/20 13:36:47;;;;;;;8.98;3.60;;;;;;;;;;5012177;28;20022;-64
2022/06/20 13:39:28;;;;;;;6.30;3.53;;;;;;;;;;5002443;28;20538;-61
2022/06/20 13:41:54;;;;;;;12.02;3.63;;;;;;;;;;4997022;28;20076;-62
2022/06/20 13:44:20;;;;;;;;;;;;;;;;;;5011258;28;20475;-62
2022/06/20 13:46:49;;;;;;;7.05;3.47;;;;;;;;;;4998018;28;19924;-63
2022/06/20 13:49:28;;;;;;;9.50;4.18;;;;;;;;;;4996580;28;20038;-64
2022/06/20 13:51:54;;;;;;;7.15;3.50;;;;;;;;;;5001791;28;20036;-64
2022/06/20 13:54:34;;;;;;;5.20;3.10;;;;;;;;;;5011873;28;20026;-63
2022/06/20 13:57:19;;;;;;;9.02;3.70;;;;;;;;;;5011682;28;20106;-64
2022/06/20 14:00:04;;;;;;;8.05;3.60;;;;;;;;;;4992400;28;20038;-64
2022/06/20 14:02:34;;;;;;;3.97;3.42;;;;;;;;;;5010847;28;20018;-63
2022/06/20 14:05:20;;;;;;;7.88;3.58;;;;;;;;;;5011142;28;20109;-63
2022/06/20 14:07:48;;;;;;;8.68;3.70;;;;;;;;;;5009057;28;20505;-61
2022/06/20 14:10:27;;;;;;;6.75;3.83;;;;;;;;;;5019960;28;20040;-61
2022/06/20 14:12:55;;;;;;;7.85;3.78;;;;;;;;;;5015093;28;20030;-61
2022/06/20 14:15:24;;;;;;;6.15;3.05;;;;;;;;;;5014903;28;20030;-61
2022/06/20 14:17:51;;;;;;;11.35;3.83;;;;;;;;;;5006528;28;20045;-62
2022/06/20 14:20:20;;;;;;;3.47;2.70;;;;;;;;;;5004074;28;20038;-61
2022/06/20 14:22:50;;;;;;;12.05;4.70;;;;;;;;;;5021446;28;20093;-61
2022/06/20 14:25:22;;;;;;;6.38;4.13;;;;;;;;;;5017756;28;20033;-59
2022/06/20 14:27:49;;;;;;;7.38;3.92;;;;;;;;;;5025309;28;20096;-60
2022/06/20 14:30:21;;;;;;;14.43;4.45;;;;;;;;;;5015350;28;20133;-60
2022/06/20 14:32:56;;;;;;;6.35;3.70;;;;;;;;;;5004068;28;20064;-59
2022/06/20 14:35:41;;;;;;;6.50;3.88;;;;;;;;;;5016517;28;20069;-60
2022/06/20 14:38:13;;;;;;;10.77;3.70;;;;;;;;;;4996492;28;20394;-60
2022/06/20 14:40:44;;;;;;;7.82;3.63;;;;;;;;;;5006368;28;20467;-60
2022/06/20 14:43:14;;;;;;;9.95;3.80;;;;;;;;;;5002499;28;20509;-60
2022/06/20 14:45:48;;;;;;;7.82;3.58;;;;;;;;;;5011841;28;20105;-60
2022/06/20 14:48:14;;;;;;;7.03;3.95;;;;;;;;;;5008495;28;20034;-60
2022/06/20 14:50:47;;;;;;;6.35;3.75;;;;;;;;;;5004209;28;20032;-60
2022/06/20 14:53:17;;;;;;;8.00;3.88;;;;;;;;;;5013109;28;20418;-59
2022/06/20 14:55:46;;;;;;;5.82;3.58;;;;;;;;;;5015179;28;20030;-60
2022/06/20 14:58:13;;;;;;;14.48;4.18;;;;;;;;;;5010718;28;20642;-59
2022/06/20 15:00:45;;;;;;;11.57;3.90;;;;;;;;;;5018037;28;20038;-58
2022/06/20 15:03:29;;;;;;;6.93;3.40;;;;;;;;;;5010201;28;20025;-60
2022/06/20 15:06:13;;;;;;;13.00;4.55;;;;;;;;;;5012985;28;20026;-60
2022/06/20 15:08:58;;;;;;;7.53;4.28;;;;;;;;;;5004126;28;20030;-60
2022/06/20 15:11:29;;;;;;;7.57;4.20;;;;;;;;;;5002300;28;20035;-60
2022/06/20 15:13:56;;;;;;;12.57;4.50;;;;;;;;;;5010837;28;20046;-62
2022/06/20 15:16:28;;;;;;;6.63;4.65;;;;;;;;;;5000068;28;20084;-62
2022/06/20 15:19:12;;;;;;;9.68;4.32;;;;;;;;;;5001076;28;20038;-62
2022/06/20 15:21:59;;;;;;;8.82;4.20;;;;;;;;;;4995056;28;20110;-62